Time;durP1;ratioP1;P1;durP2;ratioP2;P2;SDS_P1;SDS_P2;PMS_P1;PMS_P2;Temp;Humidity;BMP_temperature;BMP_pressure;BME280_temperature;BME280_humidity;BME280_pressure;Samples;Min_cycle;Max_cycle;Signal;HPM_P1;HPM_P2
2023/07/05 00:01:22;;;;;;;;;;;;;;;-144.99;100.00;52354.34;5023653;28;20019;-71
2023/07/05 00:03:48;;;;;;;;;;;;;;;-144.99;100.00;52313.56;5023920;28;19925;-72
2023/07/05 00:06:15;;;;;;;;;;;;;;;-144.99;100.00;52354.34;5012800;28;20428;-71
2023/07/05 00:08:43;;;;;;;;;;;;;;;-144.99;100.00;52395.09;5016381;28;20155;-69
2023/07/05 00:11:11;;;;;;;;;;;;;;;-144.99;100.00;52366.56;5022731;28;19961;-68
2023/07/05 00:13:38;;;;;;;;;;;;;;;-144.99;100.00;52331.91;5024740;28;19929;-68
2023/07/05 00:16:05;;;;;;;;;;;;;;;-144.99;100.00;52338.03;5024637;28;19933;-68
2023/07/05 00:18:31;;;;;;;;;;;;;;;-144.99;100.00;52380.84;5024215;28;19936;-67
2023/07/05 00:21:00;;;;;;;;;;;;;;;-144.99;100.00;52325.81;5016730;28;19933;-68
2023/07/05 00:23:26;;;;;;;;;;;;;;;-144.99;100.00;52338.03;5023243;28;19925;-66
2023/07/05 00:25:54;;;;;;;;;;;;;;;-144.99;100.00;52346.19;5016681;28;19929;-66
2023/07/05 00:28:21;;;;;;;;;;;;;;;-144.99;100.00;52309.50;5024338;28;20404;-67
2023/07/05 00:30:48;;;;;;;;;;;;;;;-144.99;100.00;52366.56;5014457;28;19925;-69
2023/07/05 00:33:15;;;;;;;;;;;;;;;-144.99;100.00;52362.50;5011647;28;19930;-68
2023/07/05 00:35:47;;;;;;;;;;;;;;;-144.99;100.00;52382.88;5016873;28;19925;-67
2023/07/05 00:38:13;;;;;;;;;;;;;;;-144.99;100.00;52354.34;5025194;28;19931;-67
2023/07/05 00:40:40;;;;;;;;;;;;;;;-144.99;100.00;52366.56;5016614;28;19929;-67
2023/07/05 00:43:08;;;;;;;;;;;;;;;-144.99;100.00;52354.34;5016961;28;20405;-68
2023/07/05 00:45:50;;;;;;;;;;;;;;;-144.99;100.00;52378.78;5024306;28;19933;-67
2023/07/05 00:48:18;;;;;;;;;;;;;;;-144.99;100.00;52331.91;5010087;28;20022;-67
2023/07/05 00:50:46;;;;;;;;;;;;;;;-144.99;100.00;52378.78;5013454;28;20133;-69
2023/07/05 00:53:13;;;;;;;;;;;;;;;-144.99;100.00;52313.56;5019609;28;19995;-67
2023/07/05 00:55:43;;;;;;;;;;;;;;;-144.99;100.00;52368.59;5027624;28;19932;-67
2023/07/05 00:58:11;;;;;;;;;;;;;;;-144.99;100.00;52321.72;5022401;28;19926;-68
2023/07/05 01:00:37;;;;;;;;;;;;;;;-144.99;100.00;52342.09;5025174;28;19936;-67
2023/07/05 01:03:06;;;;;;;;;;;;;;;-144.99;100.00;52366.56;5025646;28;19929;-67
2023/07/05 01:05:35;;;;;;;;;;;;;;;-144.99;100.00;52358.41;5029161;28;19929;-68
2023/07/05 01:08:04;;;;;;;;;;;;;;;-144.99;100.00;52348.22;5016596;28;19936;-67
2023/07/05 01:10:31;;;;;;;;;;;;;;;-144.99;100.00;52358.41;5025540;28;19925;-66
2023/07/05 01:13:02;;;;;;;;;;;;;;;-144.99;100.00;52358.41;5025890;28;19933;-67
2023/07/05 01:15:47;;;;;;;;;;;;;;;-144.99;100.00;52321.72;5023039;28;19929;-67
2023/07/05 01:18:19;;;;;;;;;;;;;;;-144.99;100.00;52319.69;5014602;28;19932;-69
2023/07/05 01:20:51;;;;;;;;;;;;;;;-144.99;100.00;52350.25;5026738;28;20233;-66
2023/07/05 01:23:44;;;;;;;;;;;;;;;-144.99;100.00;52352.28;5025089;28;20388;-67
2023/07/05 01:26:27;;;;;;;;;;;;;;;-144.99;100.00;52338.03;5024284;28;19929;-67
2023/07/05 01:29:23;;;;;;;;;;;;;;;-144.99;100.00;52358.41;5018773;28;19925;-67
2023/07/05 01:32:00;;;;;;;;;;;;;;;-144.99;100.00;52366.56;5022946;28;20121;-64
2023/07/05 01:34:34;;;;;;;;;;;;;;;-144.99;100.00;52350.25;5017568;28;20337;-65
2023/07/05 01:37:04;;;;;;;;;;;;;;;-144.99;100.00;52370.63;5024976;28;20016;-65
2023/07/05 01:39:31;;;;;;;;;;;;;;;-144.99;100.00;52358.41;5026863;28;19936;-66
2023/07/05 01:41:57;;;;;;;;;;;;;;;-144.99;100.00;52362.50;5014627;28;19929;-67
2023/07/05 01:44:24;;;;;;;;;;;;;;;-144.99;100.00;52342.09;5022497;28;20374;-66
2023/07/05 01:46:54;;;;;;;;;;;;;;;-144.99;100.00;52358.41;5010940;28;19952;-67
2023/07/05 01:49:29;;;;;;;;;;;;;;;-144.99;100.00;52366.56;5021710;28;20393;-65
2023/07/05 01:51:59;;;;;;;;;;;;;;;-144.99;100.00;52354.34;5023399;28;19937;-64
2023/07/05 01:54:30;;;;;;;;;;;;;;;-144.99;100.00;52370.63;5020251;28;19983;-64
2023/07/05 01:56:58;;;;;;;;;;;;;;;-144.99;100.00;52333.94;5025039;28;19987;-64
2023/07/05 01:59:28;;;;;;;;;;;;;;;-144.99;100.00;52397.13;5020610;28;19932;-64
2023/07/05 02:01:58;;;;;;;;;;;;;;;-144.99;100.00;52342.09;5023571;28;19932;-64
2023/07/05 02:04:25;;;;;;;;;;;;;;;-144.99;100.00;52331.91;5025689;28;19940;-64
2023/07/05 02:06:53;;;;;;;;;;;;;;;-144.99;100.00;52354.34;5017572;28;20394;-63
2023/07/05 02:09:20;;;;;;;;;;;;;;;-144.99;100.00;52362.50;5025048;28;20429;-64
2023/07/05 02:11:47;;;;;;;;;;;;;;;-144.99;100.00;52364.53;5024498;28;20028;-64
2023/07/05 02:14:14;;;;;;;;;;;;;;;-144.99;100.00;52370.63;5024898;28;20275;-64
2023/07/05 02:16:41;;;;;;;;;;;;;;;-144.99;100.00;52358.41;5026735;28;19979;-63
2023/07/05 02:19:08;;;;;;;;;;;;;;;-144.99;100.00;52370.63;5012778;28;20264;-64
2023/07/05 02:21:35;;;;;;;;;;;;;;;-144.99;100.00;52346.19;5026298;28;20333;-67
2023/07/05 02:24:03;;;;;;;;;;;;;;;-144.99;100.00;52370.63;5020642;28;19949;-65
2023/07/05 02:26:34;;;;;;;;;;;;;;;-144.99;100.00;52348.22;5021815;28;20412;-68
2023/07/05 02:29:01;;;;;;;;;;;;;;;-144.99;100.00;52374.72;5014301;28;19929;-68
2023/07/05 02:31:29;;;;;;;;;;;;;;;-144.99;100.00;52354.34;5022036;28;19926;-68
2023/07/05 02:33:55;;;;;;;;;;;;;;;-144.99;100.00;52370.63;5018129;28;19977;-68
2023/07/05 02:36:22;;;;;;;;;;;;;;;-144.99;100.00;52364.53;5024095;28;19936;-69
2023/07/05 02:38:49;;;;;;;;;;;;;;;-144.99;100.00;52333.94;5023927;28;19925;-69
2023/07/05 02:41:17;;;;;;;;;;;;;;;-144.99;100.00;52374.72;5009432;28;20279;-68
2023/07/05 02:43:43;;;;;;;;;;;;;;;-144.99;100.00;52378.78;5024416;28;19945;-68
2023/07/05 02:46:10;;;;;;;;;;;;;;;-144.99;100.00;52370.63;5026893;28;19932;-68
2023/07/05 02:48:36;;;;;;;;;;;;;;;-144.99;100.00;52388.97;5021054;28;19972;-69
2023/07/05 02:51:03;;;;;;;;;;;;;;;-144.99;100.00;52313.56;5018436;28;20219;-68
2023/07/05 02:53:30;;;;;;;;;;;;;;;-144.99;100.00;52366.56;5018308;28;19925;-63
2023/07/05 02:55:56;;;;;;;;;;;;;;;-144.99;100.00;52374.72;5008780;28;19929;-73
2023/07/05 02:58:24;;;;;;;;;;;;;;;-144.99;100.00;52354.34;5024452;28;19956;-67
2023/07/05 03:00:51;;;;;;;;;;;;;;;-144.99;100.00;52376.75;5016511;28;19926;-64
2023/07/05 03:03:18;;;;;;;;;;;;;;;-144.99;100.00;52374.72;5021184;28;19936;-64
2023/07/05 03:05:53;;;;;;;;;;;;;;;-144.99;100.00;52386.94;5017662;28;19952;-64
2023/07/05 03:08:20;;;;;;;;;;;;;;;-144.99;100.00;52329.88;5021600;28;19925;-68
2023/07/05 03:10:47;;;;;;;;;;;;;;;-144.99;100.00;52309.50;5010326;28;19929;-65
2023/07/05 03:13:13;;;;;;;;;;;;;;;-144.99;100.00;52376.75;5025407;28;19932;-65
2023/07/05 03:15:41;;;;;;;;;;;;;;;-144.99;100.00;52358.41;5024578;28;19926;-66
2023/07/05 03:18:08;;;;;;;;;;;;;;;-144.99;100.00;52338.03;5025021;28;19944;-66
2023/07/05 03:20:34;;;;;;;;;;;;;;;-144.99;100.00;52338.03;5020111;28;19948;-65
2023/07/05 03:23:01;;;;;;;;;;;;;;;-144.99;100.00;52378.78;5020945;28;19937;-65
2023/07/05 03:25:28;;;;;;;;;;;;;;;-144.99;100.00;52350.25;5019627;28;19925;-65
2023/07/05 03:27:54;;;;;;;;;;;;;;;-144.99;100.00;52331.91;5024733;28;19929;-72
2023/07/05 03:30:21;;;;;;;;;;;;;;;-144.99;100.00;52340.06;5017034;28;19929;-70
2023/07/05 03:32:50;;;;;;;;;;;;;;;-144.99;100.00;52364.53;5024064;28;19933;-70
2023/07/05 03:35:16;;;;;;;;;;;;;;;-144.99;100.00;52370.63;5022436;28;19929;-69
2023/07/05 03:37:43;;;;;;;;;;;;;;;-144.99;100.00;52362.50;5024586;28;20140;-69
2023/07/05 03:40:10;;;;;;;;;;;;;;;-144.99;100.00;52358.41;5021443;28;20257;-79
2023/07/05 03:42:37;;;;;;;;;;;;;;;-144.99;100.00;52366.56;5011612;28;19929;-68
2023/07/05 03:45:04;;;;;;;;;;;;;;;-144.99;100.00;52317.66;5022665;28;19932;-79
2023/07/05 03:47:31;;;;;;;;;;;;;;;-144.99;100.00;52346.19;5030258;28;19964;-81
2023/07/05 03:49:59;;;;;;;;;;;;;;;-144.99;100.00;52366.56;5021512;28;19936;-76
2023/07/05 03:52:25;;;;;;;;;;;;;;;-144.99;100.00;52358.41;5005539;28;19925;-74
2023/07/05 03:54:52;;;;;;;;;;;;;;;-144.99;100.00;52358.41;5020295;28;20366;-75
2023/07/05 03:57:19;;;;;;;;;;;;;;;-144.99;100.00;52368.59;5023890;28;19932;-64
2023/07/05 03:59:47;;;;;;;;;;;;;;;-144.99;100.00;52354.34;5015714;28;19925;-63
2023/07/05 04:02:13;;;;;;;;;;;;;;;-144.99;100.00;52358.41;5019038;28;19936;-64
2023/07/05 04:04:42;;;;;;;;;;;;;;;-144.99;100.00;52329.88;5021026;28;19939;-65
2023/07/05 04:07:10;;;;;;;;;;;;;;;-144.99;100.00;52370.63;5024665;28;19966;-64
2023/07/05 04:09:37;;;;;;;;;;;;;;;-144.99;100.00;52362.50;5021866;28;19925;-63
2023/07/05 04:12:04;;;;;;;;;;;;;;;-144.99;100.00;52393.06;5017699;28;19952;-64
2023/07/05 04:14:30;;;;;;;;;;;;;;;-144.99;100.00;52382.88;5024287;28;19967;-64
2023/07/05 04:16:58;;;;;;;;;;;;;;;-144.99;100.00;52329.88;5022782;28;19984;-64
2023/07/05 04:19:25;;;;;;;;;;;;;;;-144.99;100.00;52354.34;5017515;28;20385;-64
2023/07/05 04:21:51;;;;;;;;;;;;;;;-144.99;100.00;52354.34;5011005;28;19941;-64
2023/07/05 04:24:19;;;;;;;;;;;;;;;-144.99;100.00;52333.94;5019104;28;20390;-64
2023/07/05 04:26:46;;;;;;;;;;;;;;;-144.99;100.00;52407.31;5023122;28;19925;-69
2023/07/05 04:29:12;;;;;;;;;;;;;;;-144.99;100.00;52358.41;5022798;28;19926;-69
2023/07/05 04:31:39;;;;;;;;;;;;;;;-144.99;100.00;52342.09;5020652;28;19942;-70
2023/07/05 04:34:06;;;;;;;;;;;;;;;-144.99;100.00;52358.41;5025712;28;19933;-70
2023/07/05 04:36:32;;;;;;;;;;;;;;;-144.99;100.00;52301.34;5011286;28;19952;-65
2023/07/05 04:39:00;;;;;;;;;;;;;;;-144.99;100.00;52350.25;5022589;28;20182;-63
2023/07/05 04:41:28;;;;;;;;;;;;;;;-144.99;100.00;52372.69;5028253;28;19937;-63
2023/07/05 04:43:55;;;;;;;;;;;;;;;-144.99;100.00;52374.72;5022350;28;19925;-63
2023/07/05 04:46:22;;;;;;;;;;;;;;;-144.99;100.00;52329.88;5029013;28;19932;-64
2023/07/05 04:48:48;;;;;;;;;;;;;;;-144.99;100.00;52374.72;5026724;28;20424;-64
2023/07/05 04:51:15;;;;;;;;;;;;;;;-144.99;100.00;52362.50;5028097;28;20174;-67
2023/07/05 04:53:42;;;;;;;;;;;;;;;-144.99;100.00;52342.09;5023669;28;19929;-67
2023/07/05 04:56:11;;;;;;;;;;;;;;;-144.99;100.00;52344.16;5023672;28;19925;-66
2023/07/05 04:58:39;;;;;;;;;;;;;;;-144.99;100.00;52307.47;5018905;28;19936;-68
2023/07/05 05:01:07;;;;;;;;;;;;;;;-144.99;100.00;52358.41;5016354;28;20477;-67
2023/07/05 05:03:34;;;;;;;;;;;;;;;-144.99;100.00;52338.03;5018083;28;20032;-67
2023/07/05 05:06:01;;;;;;;;;;;;;;;-144.99;100.00;52340.06;5028461;28;19956;-69
2023/07/05 05:08:28;;;;;;;;;;;;;;;-144.99;100.00;52348.22;5023641;28;20126;-67
2023/07/05 05:10:55;;;;;;;;;;;;;;;-144.99;100.00;52370.63;5027499;28;19929;-64
2023/07/05 05:13:23;;;;;;;;;;;;;;;-144.99;100.00;52342.09;5019932;28;19935;-64
2023/07/05 05:15:51;;;;;;;;;;;;;;;-144.99;100.00;52346.19;5025985;28;20406;-63
2023/07/05 05:18:18;;;;;;;;;;;;;;;-144.99;100.00;52386.94;5019900;28;19929;-65
2023/07/05 05:20:44;;;;;;;;;;;;;;;-144.99;100.00;52354.34;5014071;28;19936;-63
2023/07/05 05:23:11;;;;;;;;;;;;;;;-144.99;100.00;52350.25;5019436;28;19926;-63
2023/07/05 05:25:40;;;;;;;;;;;;;;;-144.99;100.00;52358.41;5020409;28;19929;-63
2023/07/05 05:28:07;;;;;;;;;;;;;;;-144.99;100.00;52374.72;5019440;28;20382;-64
2023/07/05 05:30:35;;;;;;;;;;;;;;;-144.99;100.00;52374.72;5027357;28;19929;-64
2023/07/05 05:33:03;;;;;;;;;;;;;;;-144.99;100.00;52329.88;5023481;28;20046;-62
2023/07/05 05:35:30;;;;;;;;;;;;;;;-144.99;100.00;52366.56;5020636;28;19930;-64
2023/07/05 05:37:57;;;;;;;;;;;;;;;-144.99;100.00;52325.81;5027400;28;19929;-65
2023/07/05 05:40:24;;;;;;;;;;;;;;;-144.99;100.00;52370.63;5013883;28;19933;-65
2023/07/05 05:42:50;;;;;;;;;;;;;;;-144.99;100.00;52374.72;5017007;28;20294;-68
2023/07/05 05:45:17;;;;;;;;;;;;;;;-144.99;100.00;52374.72;5022060;28;19925;-68
2023/07/05 05:47:44;;;;;;;;;;;;;;;-144.99;100.00;52329.88;5016049;28;19932;-67
2023/07/05 05:50:12;;;;;;;;;;;;;;;-144.99;100.00;52352.28;5016900;28;19925;-67
2023/07/05 05:52:39;;;;;;;;;;;;;;;-144.99;100.00;52354.34;5026294;28;19929;-68
2023/07/05 05:55:06;;;;;;;;;;;;;;;-144.99;100.00;52346.19;5015602;28;20290;-67
2023/07/05 05:57:32;;;;;;;;;;;;;;;-144.99;100.00;52370.63;5020123;28;19936;-65
2023/07/05 05:59:59;;;;;;;;;;;;;;;-144.99;100.00;52360.44;5015493;28;19941;-61
2023/07/05 06:02:26;;;;;;;;;;;;;;;-144.99;100.00;52382.88;5015251;28;20028;-63
2023/07/05 06:04:53;;;;;;;;;;;;;;;-144.99;100.00;52329.88;5018837;28;20026;-63
2023/07/05 06:07:21;;;;;;;;;;;;;;;-144.99;100.00;52309.50;5026039;28;19929;-68
2023/07/05 06:09:48;;;;;;;;;;;;;;;-144.99;100.00;52366.56;5026727;28;19932;-67
2023/07/05 06:12:15;;;;;;;;;;;;;;;-144.99;100.00;52354.34;5024986;28;20362;-72
2023/07/05 06:14:42;;;;;;;;;;;;;;;-144.99;100.00;52350.25;5020728;28;20386;-73
2023/07/05 06:17:08;;;;;;;;;;;;;;;-144.99;100.00;52331.91;5012998;28;20652;-70
2023/07/05 06:19:35;;;;;;;;;;;;;;;-144.99;100.00;52329.88;5024992;28;20291;-72
2023/07/05 06:22:01;;;;;;;;;;;;;;;-144.99;100.00;52374.72;5019681;28;19929;-71
2023/07/05 06:24:31;;;;;;;;;;;;;;;-144.99;100.00;52313.56;5020275;28;19932;-73
2023/07/05 06:26:58;;;;;;;;;;;;;;;-144.99;100.00;52350.25;5026542;28;20078;-74
2023/07/05 06:29:25;;;;;;;;;;;;;;;-144.99;100.00;52293.19;5020425;28;19956;-73
2023/07/05 06:31:52;;;;;;;;;;;;;;;-144.99;100.00;52368.59;5018213;28;19929;-73
2023/07/05 06:34:18;;;;;;;;;;;;;;;-144.99;100.00;52358.41;5017774;28;20346;-70
2023/07/05 06:36:45;;;;;;;;;;;;;;;-144.99;100.00;52329.88;5025086;28;19941;-71
2023/07/05 06:39:12;;;;;;;;;;;;;;;-144.99;100.00;52352.28;5019095;28;19925;-72
2023/07/05 06:41:40;;;;;;;;;;;;;;;-144.99;100.00;52356.38;5022560;28;19929;-70
2023/07/05 06:44:06;;;;;;;;;;;;;;;-144.99;100.00;52374.72;5019671;28;19929;-69
2023/07/05 06:46:33;;;;;;;;;;;;;;;-144.99;100.00;52362.50;5017941;28;20237;-69
2023/07/05 06:48:59;;;;;;;;;;;;;;;-144.99;100.00;52319.69;5012686;28;19971;-69
2023/07/05 06:51:26;;;;;;;;;;;;;;;-144.99;100.00;52346.19;5014765;28;19973;-67
2023/07/05 06:53:53;;;;;;;;;;;;;;;-144.99;100.00;52338.03;5010892;28;19926;-68
2023/07/05 06:56:19;;;;;;;;;;;;;;;-144.99;100.00;52317.66;5023057;28;19940;-68
2023/07/05 06:58:48;;;;;;;;;;;;;;;-144.99;100.00;52386.94;5015970;28;19933;-70
2023/07/05 07:01:14;;;;;;;;;;;;;;;-144.99;100.00;52382.88;5019948;28;19934;-72
2023/07/05 07:03:41;;;;;;;;;;;;;;;-144.99;100.00;52321.72;5025601;28;19933;-74
2023/07/05 07:06:08;;;;;;;;;;;;;;;-144.99;100.00;52366.56;5022873;28;20461;-73
2023/07/05 07:08:35;;;;;;;;;;;;;;;-144.99;100.00;52346.19;5028650;28;19929;-73
2023/07/05 07:11:02;;;;;;;;;;;;;;;-144.99;100.00;52342.09;5014289;28;19929;-73
2023/07/05 07:13:29;;;;;;;;;;;;;;;-144.99;100.00;52366.56;5020797;28;19950;-73
2023/07/05 07:16:01;;;;;;;;;;;;;;;-144.99;100.00;52346.19;5026804;28;19933;-74
2023/07/05 07:18:27;;;;;;;;;;;;;;;-144.99;100.00;52354.34;5025822;28;19925;-73
2023/07/05 07:20:54;;;;;;;;;;;;;;;-144.99;100.00;52325.81;5022197;28;19925;-73
2023/07/05 07:23:21;;;;;;;;;;;;;;;-144.99;100.00;52366.56;5027078;28;19932;-73
2023/07/05 07:25:48;;;;;;;;;;;;;;;-144.99;100.00;52317.66;5026644;28;19940;-72
2023/07/05 07:28:15;;;;;;;;;;;;;;;-144.99;100.00;52325.81;5014733;28;19968;-73
2023/07/05 07:30:42;;;;;;;;;;;;;;;-144.99;100.00;52362.50;4327944;28;10000624;-73
2023/07/05 07:33:11;;;;;;;;;;;;;;;-144.99;100.00;52342.09;5019634;28;19952;-72
2023/07/05 07:35:38;;;;;;;;;;;;;;;-144.99;100.00;52315.59;5015761;28;19973;-73
2023/07/05 07:38:04;;;;;;;;;;;;;;;-144.99;100.00;52333.94;5011340;28;19932;-72
2023/07/05 07:40:36;;;;;;;;;;;;;;;-144.99;100.00;52354.34;5020154;28;19929;-72
2023/07/05 07:43:02;;;;;;;;;;;;;;;-144.99;100.00;52305.41;5012476;28;19944;-73
2023/07/05 07:45:29;;;;;;;;;;;;;;;-144.99;100.00;52317.66;5018329;28;20306;-73
2023/07/05 07:47:55;;;;;;;;;;;;;;;-144.99;100.00;52350.25;5011579;28;19936;-72
2023/07/05 07:50:23;;;;;;;;;;;;;;;-144.99;100.00;52325.81;5005901;28;19939;-72
2023/07/05 07:52:50;;;;;;;;;;;;;;;-144.99;100.00;52305.41;5016510;28;20388;-72
2023/07/05 07:55:17;;;;;;;;;;;;;;;-144.99;100.00;52362.50;5016838;28;19937;-72
2023/07/05 07:57:43;;;;;;;;;;;;;;;-144.99;100.00;52329.88;5005415;28;19949;-72
2023/07/05 08:00:11;;;;;;;;;;;;;;;-144.99;100.00;52280.97;5014756;28;19932;-72
2023/07/05 08:02:37;;;;;;;;;;;;;;;-144.99;100.00;52321.72;5010416;28;20366;-72
2023/07/05 08:05:05;;;;;;;;;;;;;;;-144.99;100.00;52329.88;5011510;28;19947;-72
2023/07/05 08:07:33;;;;;;;;;;;;;;;-144.99;100.00;52309.50;5026506;28;19932;-72
2023/07/05 08:09:59;;;;;;;;;;;;;;;-144.99;100.00;52289.13;5012333;28;19937;-72
2023/07/05 08:12:26;;;;;;;;;;;;;;;-144.99;100.00;52293.19;5014157;28;19929;-71
2023/07/05 08:14:53;;;;;;;;;;;;;;;-144.99;100.00;52305.41;5013930;28;20020;-72
2023/07/05 08:17:20;;;;;;;;;;;;;;;-144.99;100.00;52293.19;5020119;28;19941;-72
2023/07/05 08:19:46;;;;;;;;;;;;;;;-144.99;100.00;52285.03;5015906;28;19975;-72
2023/07/05 08:22:14;;;;;;;;;;;;;;;-144.99;100.00;52301.34;5006365;28;19961;-72
2023/07/05 08:24:42;;;;;;;;;;;;;;;-144.99;100.00;52309.50;5014668;28;19976;-72
2023/07/05 08:27:09;;;;;;;;;;;;;;;-144.99;100.00;52311.53;5016537;28;19951;-72
2023/07/05 08:29:35;;;;;;;;;;;;;;;-144.99;100.00;52293.19;5019067;28;19956;-70
2023/07/05 08:32:03;;;;;;;;;;;;;;;-144.99;100.00;52331.91;5011082;28;20399;-71
2023/07/05 08:34:30;;;;;;;;;;;;;;;-144.99;100.00;52293.19;5020630;28;19964;-71
2023/07/05 08:36:57;;;;;;;;;;;;;;;-144.99;100.00;52299.31;5020830;28;20015;-74
2023/07/05 08:39:24;;;;;;;;;;;;;;;-144.99;100.00;52285.03;5008453;28;19943;-73
2023/07/05 08:42:03;;;;;;;;;;;;;;;-144.99;100.00;52252.44;5013072;28;20319;-71
2023/07/05 08:44:42;;;;;;;;;;;;;;;-144.99;100.00;52313.56;5020207;28;19945;-72
2023/07/05 08:47:17;;;;;;;;;;;;;;;-144.99;100.00;52327.84;5016861;28;20278;-71
2023/07/05 08:49:49;;;;;;;;;;;;;;;-144.99;100.00;52264.66;5020020;28;19955;-71
2023/07/05 08:52:21;;;;;;;;;;;;;;;-144.99;100.00;52254.47;5023715;28;19950;-74
2023/07/05 08:54:50;;;;;;;;;;;;;;;-144.99;100.00;52244.28;5015274;28;20418;-71
2023/07/05 08:57:26;;;;;;;;;;;;;;;-144.99;100.00;52240.19;5016172;28;19938;-73
2023/07/05 08:59:56;;;;;;;;;;;;;;;-144.99;100.00;52240.19;4675902;28;10000229;-69
2023/07/05 09:02:23;;;;;;;;;;;;;;;-144.99;100.00;52232.03;5013521;28;19947;-70
2023/07/05 09:04:50;;;;;;;;;;;;;;;-144.99;100.00;52280.97;5018623;28;19943;-69
2023/07/05 09:07:21;;;;;;;;;;;;;;;-144.99;100.00;52248.34;5025182;28;19966;-69
2023/07/05 09:09:51;;;;;;;;;;;;;;;-144.99;93.23;52244.28;5020871;28;20013;-70
2023/07/05 09:12:22;;;;;;;;;;;;;;;-144.99;90.39;52258.53;5019048;28;19943;-69
2023/07/05 09:15:00;;;;;;;;;;;;;;;-144.99;86.91;52238.16;5016643;28;19939;-69
2023/07/05 09:17:33;;;;;;;;;;;;;;;-144.99;87.81;52264.66;5023446;28;19929;-69
2023/07/05 09:20:03;;;;;;;;;;;;;;;-144.99;86.83;52280.97;5013093;28;19929;-69
2023/07/05 09:22:33;;;;;;;;;;;;;;;-144.99;84.97;52240.19;5023415;28;19933;-69
2023/07/05 09:25:00;;;;;;;;;;;;;;;-144.99;85.16;52276.88;5017738;28;20343;-69
2023/07/05 09:27:31;;;;;;;;;;;;;;;-144.99;84.95;52327.84;5011583;28;20555;-68
2023/07/05 09:30:00;;;;;;;;;;;;;;;-144.99;84.67;52276.88;5022389;28;20410;-68
2023/07/05 09:32:31;;;;;;;;;;;;;;;-144.99;83.81;52244.28;5018434;28;20595;-69
2023/07/05 09:34:59;;;;;;;;;;;;;;;-144.99;81.98;52305.41;5017428;28;21832;-69
2023/07/05 09:37:27;;;;;;;;;;;;;;;-144.99;77.83;52276.88;5016841;28;19925;-70
2023/07/05 09:40:06;;;;;;;;;;;;;;;-144.99;77.78;52244.28;5023776;28;20317;-69
2023/07/05 09:42:36;;;;;;;;;;;;;;;-144.99;77.32;52289.13;5021116;28;19963;-68
2023/07/05 09:45:03;;;;;;;;;;;;;;;-144.99;74.53;52256.50;5019136;28;19929;-68
2023/07/05 09:47:30;;;;;;;;;;;;;;;-144.99;72.24;52213.69;5017211;28;20372;-68
2023/07/05 09:49:56;;;;;;;;;;;;;;;-144.99;72.74;52244.28;5015688;28;19936;-68
2023/07/05 09:52:24;;;;;;;;;;;;;;;-144.99;72.74;52256.50;5016289;28;19929;-68
2023/07/05 09:54:52;;;;;;;;;;;;;;;-144.99;71.99;52260.56;5019279;28;19929;-68
2023/07/05 09:57:23;;;;;;;;;;;;;;;-144.99;71.83;52276.88;5012890;28;19934;-69
2023/07/05 09:59:52;;;;;;;;;;;;;;;-144.99;74.08;52248.34;5016893;28;19930;-68
2023/07/05 10:02:23;;;;;;;;;;;;;;;-144.99;72.58;52256.50;5020634;28;20271;-68
2023/07/05 10:04:50;;;;;;;;;;;;;;;-144.99;71.21;52221.84;5014844;28;19930;-69
2023/07/05 10:07:18;;;;;;;;;;;;;;;-144.99;70.98;52248.34;5014103;28;19925;-71
2023/07/05 10:09:55;;;;;;;;;;;;;;;-144.99;69.37;52232.03;5023261;28;19940;-69
2023/07/05 10:12:23;;;;;;;;;;;;;;;-144.99;70.05;52207.59;5015025;28;19940;-69
2023/07/05 10:14:56;;;;;;;;;;;;;;;-144.99;69.62;52187.19;5014747;28;19929;-70
2023/07/05 10:17:23;;;;;;;;;;;;;;;-144.99;68.36;52268.72;5020800;28;20390;-69
2023/07/05 10:19:50;;;;;;;;;;;;;;;-144.99;69.19;52280.97;5012469;28;19937;-70
2023/07/05 10:22:23;;;;;;;;;;;;;;;-144.99;69.79;52264.66;5016916;28;19925;-70
2023/07/05 10:24:50;;;;;;;;;;;;;;;-144.99;71.05;52280.97;5008870;28;19948;-69
2023/07/05 10:27:22;;;;;;;;;;;;;;;-144.99;70.63;52246.31;5008788;28;19929;-69
2023/07/05 10:29:49;;;;;;;;;;;;;;;-144.99;70.79;52248.34;5008071;28;20018;-69
2023/07/05 10:32:19;;;;;;;;;;;;;;;-144.99;70.69;52293.19;5015831;28;19929;-69
2023/07/05 10:34:49;;;;;;;;;;;;;;;-144.99;70.32;52268.72;5013436;28;19930;-69
2023/07/05 10:37:35;;;;;;;;;;;;;;;-144.99;70.31;52280.97;5013596;28;20263;-68
2023/07/05 10:40:10;;;;;;;;;;;;;;;-144.99;69.41;52264.66;5018059;28;19936;-66
2023/07/05 10:42:38;;;;;;;;;;;;;;;-144.99;69.36;52232.03;5014918;28;19929;-69
2023/07/05 10:45:05;;;;;;;;;;;;;;;-144.99;67.88;52211.66;5018587;28;19929;-68
2023/07/05 10:47:34;;;;;;;;;;;;;;;-144.99;67.30;52236.13;5012550;28;20429;-66
2023/07/05 10:50:04;;;;;;;;;;;;;;;-144.99;67.95;52223.88;5009406;28;19930;-66
2023/07/05 10:52:32;;;;;;;;;;;;;;;-144.99;69.62;52283.00;5016372;28;20020;-67
2023/07/05 10:55:03;;;;;;;;;;;;;;;-144.99;68.71;52266.69;5006049;28;19937;-67
2023/07/05 10:57:32;;;;;;;;;;;;;;;-144.99;68.87;52252.44;5011629;28;20009;-67
2023/07/05 11:00:01;;;;;;;;;;;;;;;-144.99;68.85;52285.03;5013782;28;19934;-66
2023/07/05 11:02:38;;;;;;;;;;;;;;;-144.99;70.01;52309.50;5017051;28;20004;-67
2023/07/05 11:05:17;;;;;;;;;;;;;;;-144.99;70.28;52293.19;5020171;28;20251;-69
2023/07/05 11:07:45;;;;;;;;;;;;;;;-144.99;69.65;52264.66;5022170;28;19933;-69
2023/07/05 11:10:13;;;;;;;;;;;;;;;-144.99;69.91;52256.50;5014494;28;20031;-68
2023/07/05 11:12:41;;;;;;;;;;;;;;;-144.99;69.09;52223.88;5010571;28;19936;-68
2023/07/05 11:15:13;;;;;;;;;;;;;;;-144.99;68.02;52207.59;5014445;28;20295;-69
2023/07/05 11:17:42;;;;;;;;;;;;;;;-144.99;67.39;52207.59;5016150;28;19929;-69
2023/07/05 11:20:24;;;;;;;;;;;;;;;-144.99;67.18;52199.44;5021572;28;19925;-69
2023/07/05 11:22:51;;;;;;;;;;;;;;;-144.99;67.61;52183.13;5019156;28;20401;-69
2023/07/05 11:25:18;;;;;;;;;;;;;;;-144.99;67.06;52264.66;5013741;28;20398;-68
2023/07/05 11:27:53;;;;;;;;;;;;;;;-144.99;66.57;52219.81;5015361;28;20374;-67
2023/07/05 11:30:38;;;;;;;;;;;;;;;-144.99;66.98;52244.28;5012591;28;19933;-69
2023/07/05 11:33:20;;;;;;;;;;;;;;;-144.99;67.68;52280.97;5013783;28;19929;-67
2023/07/05 11:35:48;;;;;;;;;;;;;;;-144.99;68.15;52285.03;5014078;28;20020;-68
2023/07/05 11:38:33;;;;;;;;;;;;;;;-144.99;68.52;52252.44;5010903;28;19937;-69
2023/07/05 11:41:04;;;;;;;;;;;;;;;-144.99;68.57;52309.50;5013912;28;20310;-67
2023/07/05 11:43:48;;;;;;;;;;;;;;;-144.99;68.67;52321.72;5015821;28;19946;-67
2023/07/05 11:46:33;;;;;;;;;;;;;;;-144.99;69.62;52321.72;5004876;28;20417;-69
2023/07/05 11:49:14;;;;;;;;;;;;;;;-144.99;69.65;52313.56;5014634;28;19929;-69
2023/07/05 11:51:42;;;;;;;;;;;;;;;-144.99;69.98;52325.81;5020338;28;19929;-68
2023/07/05 11:54:09;;;;;;;;;;;;;;;-144.99;70.18;52370.63;5004518;28;20375;-68
2023/07/05 11:56:39;;;;;;;;;;;;;;;-144.99;70.28;52301.34;5017219;28;19929;-68
2023/07/05 11:59:07;;;;;;;;;;;;;;;-144.99;69.80;52309.50;5018518;28;19976;-66
2023/07/05 12:01:38;;;;;;;;;;;;;;;-144.99;69.71;52299.31;5019123;28;20043;-67
2023/07/05 12:04:07;;;;;;;;;;;;;;;-144.99;69.86;52333.94;5012443;28;19936;-68
2023/07/05 12:06:37;;;;;;;;;;;;;;;-144.99;69.89;52329.88;5013993;28;20331;-67
2023/07/05 12:09:05;;;;;;;;;;;;;;;-144.99;70.18;52325.81;5016798;28;19991;-67
2023/07/05 12:11:34;;;;;;;;;;;;;;;-144.99;70.02;52329.88;5011543;28;19975;-67
2023/07/05 12:14:02;;;;;;;;;;;;;;;-144.99;70.66;52333.94;5013428;28;19929;-68
2023/07/05 12:16:29;;;;;;;;;;;;;;;-144.99;70.82;52313.56;5008687;28;20462;-67
2023/07/05 12:18:56;;;;;;;;;;;;;;;-144.99;70.60;52338.03;5012690;28;20523;-67
2023/07/05 12:21:24;;;;;;;;;;;;;;;-144.99;70.62;52319.69;5014326;28;19934;-67
2023/07/05 12:23:52;;;;;;;;;;;;;;;-144.99;70.63;52329.88;5012659;28;19930;-68
2023/07/05 12:26:21;;;;;;;;;;;;;;;-144.99;71.36;52309.50;5018921;28;20185;-68
2023/07/05 12:28:48;;;;;;;;;;;;;;;-144.99;71.39;52329.88;5011037;28;19929;-67